createdAt,value
2019-05-20T00:00:17.990Z,27.97
2019-05-20T00:05:42.372Z,27.27
2019-05-20T00:11:06.602Z,26.53
2019-05-20T00:16:31.283Z,28.53
2019-05-20T00:21:55.641Z,28.47
2019-05-20T00:27:20.597Z,26.77
2019-05-20T00:32:44.259Z,27.00
2019-05-20T00:38:08.641Z,28.43
2019-05-20T00:43:33.434Z,27.67
2019-05-20T00:48:57.555Z,29.60
2019-05-20T00:54:21.854Z,27.90
2019-05-20T00:59:46.111Z,28.87
2019-05-20T01:05:10.053Z,27.93
2019-05-20T01:10:34.219Z,28.03
2019-05-20T01:15:57.951Z,28.77
2019-05-20T01:21:22.679Z,28.30
2019-05-20T01:26:46.238Z,28.20
2019-05-20T01:32:10.919Z,27.93
2019-05-20T01:37:36.079Z,28.50
2019-05-20T01:43:01.089Z,26.93
2019-05-20T01:48:25.790Z,26.03
2019-05-20T01:53:50.104Z,26.53
2019-05-20T01:59:14.699Z,26.67
2019-05-20T02:04:39.591Z,28.67
2019-05-20T02:10:03.839Z,29.50
2019-05-20T02:15:46.072Z,29.10
2019-05-20T02:21:10.979Z,29.77
2019-05-20T02:26:36.122Z,28.23
2019-05-20T02:32:00.621Z,28.13
2019-05-20T02:37:24.336Z,28.33
2019-05-20T02:42:49.478Z,29.27
2019-05-20T02:48:13.553Z,30.60
2019-05-20T02:53:38.264Z,28.97
2019-05-20T02:59:02.624Z,27.97
2019-05-20T03:04:26.514Z,29.63
2019-05-20T03:09:51.494Z,27.63
2019-05-20T03:15:16.292Z,29.83
2019-05-20T03:20:41.296Z,29.90
2019-05-20T03:26:06.049Z,30.40
2019-05-20T03:31:29.734Z,28.43
2019-05-20T03:36:53.423Z,26.80
2019-05-20T03:42:17.399Z,27.37
2019-05-20T03:47:42.408Z,26.37
2019-05-20T03:53:06.794Z,26.63
2019-05-20T03:58:30.902Z,25.03
2019-05-20T04:03:55.447Z,23.80
2019-05-20T04:09:19.182Z,23.50
2019-05-20T04:14:43.603Z,21.43
2019-05-20T04:20:08.426Z,18.37
2019-05-20T04:25:32.580Z,19.90
2019-05-20T04:30:56.461Z,17.75
2019-05-20T04:36:20.164Z,18.70
2019-05-20T04:41:44.885Z,19.00
2019-05-20T04:47:09.727Z,19.30
2019-05-20T04:52:34.327Z,18.42
2019-05-20T04:57:58.657Z,18.60
2019-05-20T05:03:23.772Z,18.52
2019-05-20T05:08:48.606Z,17.42
2019-05-20T05:14:13.233Z,19.20
2019-05-20T05:19:37.809Z,16.67
2019-05-20T05:25:02.583Z,16.52
2019-05-20T05:30:27.068Z,17.05
2019-05-20T05:35:53.655Z,15.45
2019-05-20T05:41:18.180Z,15.48
2019-05-20T05:46:41.963Z,14.47
2019-05-20T05:52:06.600Z,15.08
2019-05-20T05:57:31.528Z,14.73
2019-05-20T06:02:56.244Z,14.78
2019-05-20T06:08:21.148Z,14.90
2019-05-20T06:13:45.114Z,13.20
2019-05-20T06:19:08.791Z,13.18
2019-05-20T06:24:32.767Z,13.40
2019-05-20T06:29:57.774Z,13.15
2019-05-20T06:35:22.553Z,12.85
2019-05-20T06:40:51.476Z,12.15
2019-05-20T06:46:15.947Z,12.25
2019-05-20T06:51:41.216Z,11.73
2019-05-20T06:57:05.802Z,11.30
2019-05-20T07:02:30.741Z,9.98
2019-05-20T07:07:54.756Z,10.10
2019-05-20T07:13:19.136Z,8.45
2019-05-20T07:18:42.941Z,9.33
2019-05-20T07:24:07.683Z,8.95
2019-05-20T07:29:31.622Z,8.85
2019-05-20T07:34:55.546Z,8.50
2019-05-20T07:40:30.582Z,8.18
2019-05-20T07:45:55.369Z,8.28
2019-05-20T07:51:20.900Z,7.42
2019-05-20T07:56:47.617Z,8.28
2019-05-20T08:02:12.430Z,7.62
2019-05-20T08:07:51.217Z,7.08
2019-05-20T08:13:02.794Z,7.42
2019-05-20T08:18:26.722Z,7.03
2019-05-20T08:23:50.618Z,7.10
2019-05-20T08:29:15.325Z,6.62
2019-05-20T08:34:39.804Z,6.60
2019-05-20T08:40:05.561Z,6.67
2019-05-20T08:45:29.730Z,5.92
2019-05-20T08:50:53.984Z,6.25
2019-05-20T08:56:18.810Z,6.42
2019-05-20T09:01:43.205Z,6.05
2019-05-20T09:07:07.740Z,5.95
2019-05-20T09:12:31.653Z,5.92
2019-05-20T09:17:55.748Z,5.75
2019-05-20T09:23:19.628Z,6.30
2019-05-20T09:28:43.599Z,5.87
2019-05-20T09:34:08.398Z,6.40
2019-05-20T09:39:32.945Z,5.85
2019-05-20T09:45:01.774Z,5.37
2019-05-20T09:50:23.362Z,5.75
2019-05-20T09:55:47.018Z,5.62
2019-05-20T10:01:11.222Z,5.50
2019-05-20T10:06:35.115Z,5.80
2019-05-20T10:11:59.784Z,4.72
2019-05-20T10:17:23.878Z,5.25
2019-05-20T10:22:48.569Z,5.00
2019-05-20T10:28:12.972Z,5.72
2019-05-20T10:33:37.490Z,5.20
2019-05-20T10:39:01.930Z,5.72
2019-05-20T10:44:27.539Z,5.50
2019-05-20T10:49:52.107Z,5.25
2019-05-20T10:55:16.574Z,5.33
2019-05-20T11:00:40.298Z,5.10
2019-05-20T11:06:05.063Z,5.08
2019-05-20T11:11:29.981Z,5.92
2019-05-20T11:16:54.378Z,5.85
2019-05-20T11:22:18.481Z,5.50
2019-05-20T11:27:43.516Z,5.30
2019-05-20T11:33:08.358Z,4.60
2019-05-20T11:38:33.286Z,5.00
2019-05-20T11:43:57.606Z,5.67
2019-05-20T11:49:21.428Z,4.70
2019-05-20T11:54:46.226Z,5.35
2019-05-20T12:00:12.033Z,5.40
2019-05-20T12:05:36.578Z,5.40
2019-05-20T12:11:00.973Z,5.70
2019-05-20T12:16:25.488Z,5.37
2019-05-20T12:21:49.900Z,6.17
2019-05-20T12:27:13.829Z,6.42
2019-05-20T12:32:38.528Z,6.10
2019-05-20T12:38:03.138Z,6.33
2019-05-20T12:43:27.959Z,6.05
2019-05-20T12:48:52.114Z,6.28
2019-05-20T12:54:16.250Z,5.97
2019-05-20T12:59:39.889Z,6.33
2019-05-20T13:05:06.002Z,6.40
2019-05-20T13:10:32.256Z,6.55
2019-05-20T13:15:56.250Z,6.85
2019-05-20T13:21:20.050Z,7.15
2019-05-20T13:26:44.844Z,7.03
2019-05-20T13:32:08.908Z,6.92
2019-05-20T13:37:33.818Z,7.62
2019-05-20T13:42:57.735Z,8.35
2019-05-20T13:48:22.422Z,7.90
2019-05-20T13:53:46.940Z,8.13
2019-05-20T13:59:11.847Z,8.13
2019-05-20T14:04:36.549Z,7.87
2019-05-20T14:10:01.454Z,8.13
2019-05-20T14:15:26.821Z,9.35
2019-05-20T14:20:50.407Z,9.93
2019-05-20T14:26:14.952Z,9.10
2019-05-20T14:31:39.272Z,10.30
2019-05-20T14:37:03.098Z,11.10
2019-05-20T14:42:26.733Z,10.78
2019-05-20T14:47:51.388Z,12.80
2019-05-20T14:53:15.231Z,14.65
2019-05-20T14:58:38.793Z,19.85
2019-05-20T15:04:03.399Z,21.40
2019-05-20T15:09:27.338Z,18.55
2019-05-20T15:14:51.117Z,35.43
2019-05-20T15:20:15.514Z,34.55
2019-05-20T15:25:39.379Z,35.17
2019-05-20T15:31:04.056Z,31.90
2019-05-20T15:36:28.729Z,6.00
2019-05-20T15:41:53.109Z,4.80
2019-05-20T15:47:18.890Z,5.12
2019-05-20T15:52:44.270Z,5.10
2019-05-20T15:58:07.866Z,4.80
2019-05-20T16:03:31.966Z,5.50
2019-05-20T16:08:57.093Z,6.75
2019-05-20T16:14:22.020Z,9.18
2019-05-20T16:19:47.136Z,6.12
2019-05-20T16:25:12.037Z,6.62
2019-05-20T16:30:36.564Z,5.58
2019-05-20T16:36:01.048Z,5.67
2019-05-20T16:41:24.973Z,6.75
2019-05-20T16:46:48.646Z,7.45
2019-05-20T16:52:12.890Z,8.25
2019-05-20T16:57:37.742Z,9.73
2019-05-20T17:03:02.481Z,10.15
2019-05-20T17:08:26.462Z,12.40
2019-05-20T17:13:51.565Z,13.45
2019-05-20T17:19:16.475Z,12.95
2019-05-20T17:24:41.194Z,14.33
2019-05-20T17:30:06.421Z,16.27
2019-05-20T17:35:30.990Z,16.65
2019-05-20T17:40:55.119Z,18.02
2019-05-20T17:46:19.225Z,18.95
2019-05-20T17:51:44.208Z,15.70
2019-05-20T17:57:08.966Z,18.00
2019-05-20T18:02:34.075Z,22.25
2019-05-20T18:22:11.808Z,25.30
2019-05-20T18:27:35.680Z,29.70
2019-05-20T18:32:59.516Z,26.20
2019-05-20T18:38:23.565Z,24.47
2019-05-20T18:43:48.301Z,24.98
2019-05-20T18:49:12.742Z,24.72
2019-05-20T18:54:36.529Z,24.85
2019-05-20T19:00:01.106Z,24.92
2019-05-20T19:05:25.923Z,23.18
2019-05-20T19:10:49.516Z,21.80
2019-05-20T19:16:13.745Z,17.67
2019-05-20T19:21:38.297Z,14.93
2019-05-20T19:27:04.737Z,14.00
2019-05-20T19:32:29.627Z,16.07
2019-05-20T19:37:54.054Z,17.42
2019-05-20T19:43:17.847Z,17.87
2019-05-20T19:48:41.465Z,17.20
2019-05-20T19:54:05.649Z,22.40
2019-05-20T19:59:30.319Z,23.17
2019-05-20T20:04:56.126Z,23.92
2019-05-20T20:10:20.497Z,23.43
2019-05-20T20:15:44.476Z,26.90
2019-05-20T20:21:09.204Z,25.90
2019-05-20T20:26:34.340Z,24.70
2019-05-20T20:31:58.852Z,24.70
2019-05-20T20:37:23.919Z,23.23
2019-05-20T20:42:49.062Z,24.25
2019-05-20T20:48:13.492Z,20.80
2019-05-20T20:53:37.420Z,20.32
2019-05-20T20:59:02.126Z,19.12
2019-05-20T21:04:26.438Z,16.87
2019-05-20T21:09:51.066Z,20.85
2019-05-20T21:15:15.008Z,17.63
2019-05-20T21:20:39.380Z,17.50
2019-05-20T21:26:04.151Z,17.10
2019-05-20T21:31:28.654Z,20.67
2019-05-20T21:36:53.016Z,22.23
2019-05-20T21:42:18.268Z,24.20
2019-05-20T21:47:44.820Z,27.70
2019-05-20T21:53:09.606Z,27.63
2019-05-20T21:58:34.142Z,30.37
2019-05-20T22:03:58.138Z,33.20
2019-05-20T22:09:22.471Z,36.67
2019-05-20T22:14:47.229Z,36.83
2019-05-20T22:20:11.770Z,43.83
2019-05-20T22:25:37.285Z,32.63
2019-05-20T22:31:02.228Z,44.33
2019-05-20T22:36:26.252Z,40.67
2019-05-20T22:41:51.113Z,53.57
2019-05-20T22:47:16.042Z,33.70
2019-05-20T22:52:40.153Z,46.03
2019-05-20T22:58:04.875Z,49.77
2019-05-20T23:03:29.601Z,49.83
2019-05-20T23:08:54.630Z,47.37
2019-05-20T23:14:19.560Z,44.13
2019-05-20T23:19:44.263Z,41.63
2019-05-20T23:25:07.831Z,43.63
2019-05-20T23:30:32.399Z,42.47
2019-05-20T23:35:56.383Z,49.33
2019-05-20T23:41:21.089Z,60.33
2019-05-20T23:46:45.762Z,54.97
2019-05-20T23:52:09.684Z,51.23
2019-05-20T23:57:33.435Z,45.60
